Time;durP1;ratioP1;P1;durP2;ratioP2;P2;SDS_P1;SDS_P2;PMS_P1;PMS_P2;Temp;Humidity;BMP_temperature;BMP_pressure;BME280_temperature;BME280_humidity;BME280_pressure;Samples;Min_cycle;Max_cycle;Signal;HPM_P1;HPM_P2
2022/09/04 00:00:34;;;;;;;8.63;6.30;;;;;;;;;;10287583;28;20458;-74
2022/09/04 00:05:49;;;;;;;8.20;5.90;;;;;;;;;;10293839;28;20034;-75
2022/09/04 00:10:49;;;;;;;6.75;5.45;;;;;;;;;;10287452;28;20054;-76
2022/09/04 00:15:54;;;;;;;6.67;5.97;;;;;;;;;;10314439;28;20471;-74
2022/09/04 00:21:06;;;;;;;6.65;5.95;;;;;;;;;;10334717;28;20042;-76
2022/09/04 00:26:10;;;;;;;8.10;6.22;;;;;;;;;;10292394;28;20065;-74
2022/09/04 00:31:18;;;;;;;8.63;6.60;;;;;;;;;;10295211;28;20054;-76
2022/09/04 00:36:21;;;;;;;8.77;6.28;;;;;;;;;;10280845;28;20093;-76
2022/09/04 00:41:48;;;;;;;7.03;6.32;;;;;;;;;;10286907;28;20108;-75
2022/09/04 00:46:53;;;;;;;7.20;6.22;;;;;;;;;;10251374;28;20086;-76
2022/09/04 00:51:56;;;;;;;8.80;6.35;;;;;;;;;;10288894;28;20186;-75
2022/09/04 00:57:02;;;;;;;6.93;5.80;;;;;;;;;;10289052;28;20035;-75
2022/09/04 01:02:11;;;;;;;7.50;6.15;;;;;;;;;;10284601;28;20035;-74
2022/09/04 01:07:16;;;;;;;8.45;6.95;;;;;;;;;;10287798;28;20145;-76
2022/09/04 01:12:24;;;;;;;6.88;6.18;;;;;;;;;;10288624;28;20097;-76
2022/09/04 01:17:51;;;;;;;7.15;5.80;;;;;;;;;;10284578;28;20038;-74
2022/09/04 01:22:57;;;;;;;7.03;6.30;;;;;;;;;;10271513;28;20046;-76
2022/09/04 01:28:03;;;;;;;6.68;5.80;;;;;;;;;;10286756;28;20463;-76
2022/09/04 01:33:13;;;;;;;6.90;6.07;;;;;;;;;;10285228;28;20490;-76
2022/09/04 01:38:25;;;;;;;8.65;6.68;;;;;;;;;;10286674;28;20230;-76
2022/09/04 01:43:26;;;;;;;7.80;6.25;;;;;;;;;;10286098;28;20038;-75
2022/09/04 01:48:48;;;;;;;6.90;6.20;;;;;;;;;;10283976;28;20142;-74
2022/09/04 01:54:04;;;;;;;7.90;6.90;;;;;;;;;;10287198;28;20039;-74
2022/09/04 01:59:12;;;;;;;6.95;6.18;;;;;;;;;;10287986;28;20198;-74
2022/09/04 02:04:23;;;;;;;7.35;6.65;;;;;;;;;;10282596;28;20054;-76
2022/09/04 02:09:29;;;;;;;8.05;7.00;;;;;;;;;;10281165;28;20039;-75
2022/09/04 02:14:39;;;;;;;8.60;7.07;;;;;;;;;;10285099;28;20043;-76
2022/09/04 02:19:58;;;;;;;8.05;7.25;;;;;;;;;;10284020;28;20060;-75
2022/09/04 02:25:05;;;;;;;8.50;7.18;;;;;;;;;;10280733;28;20039;-75
2022/09/04 02:30:10;;;;;;;8.82;7.40;;;;;;;;;;10283686;28;20046;-75
2022/09/04 02:35:11;;;;;;;8.75;7.85;;;;;;;;;;10283912;28;20506;-76
2022/09/04 02:40:17;;;;;;;8.77;7.87;;;;;;;;;;10288026;28;20049;-77
2022/09/04 02:45:33;;;;;;;10.55;8.27;;;;;;;;;;10286634;28;20393;-76
2022/09/04 02:50:52;;;;;;;8.77;7.55;;;;;;;;;;10282114;28;20498;-73
2022/09/04 02:56:11;;;;;;;7.35;6.53;;;;;;;;;;10295274;28;20430;-75
2022/09/04 03:01:24;;;;;;;9.57;7.65;;;;;;;;;;10283026;28;20518;-75
2022/09/04 03:12:43;;;;;;;7.38;6.68;;;;;;;;;;10295656;28;20051;-75
2022/09/04 03:17:57;;;;;;;7.22;6.40;;;;;;;;;;10302572;28;20039;-75
2022/09/04 03:22:57;;;;;;;8.13;7.30;;;;;;;;;;10297914;28;20092;-77
2022/09/04 03:27:59;;;;;;;8.87;7.40;;;;;;;;;;10313056;28;20042;-77
2022/09/04 03:33:05;;;;;;;9.15;7.93;;;;;;;;;;10323569;28;20061;-76
2022/09/04 03:38:05;;;;;;;7.90;6.70;;;;;;;;;;10335427;28;20027;-74
2022/09/04 03:43:32;;;;;;;7.50;6.77;;;;;;;;;;10332728;28;20060;-75
2022/09/04 03:48:41;;;;;;;7.88;7.07;;;;;;;;;;10317121;28;20064;-75
2022/09/04 03:53:45;;;;;;;8.73;7.28;;;;;;;;;;10301815;28;20050;-76
2022/09/04 03:58:45;;;;;;;;;;;;;;;;;;10291080;28;20487;-75
2022/09/04 04:04:04;;;;;;;8.45;7.47;;;;;;;;;;10290588;28;20029;-76
2022/09/04 04:09:05;;;;;;;8.52;6.97;;;;;;;;;;10287419;28;20050;-76
2022/09/04 04:14:05;;;;;;;8.85;7.50;;;;;;;;;;10289060;28;20070;-75
2022/09/04 04:19:36;;;;;;;7.33;6.43;;;;;;;;;;10280436;28;20390;-76
2022/09/04 04:24:56;;;;;;;6.95;6.25;;;;;;;;;;10291639;28;20317;-75
2022/09/04 04:29:58;;;;;;;6.55;5.88;;;;;;;;;;10287054;28;20047;-75
2022/09/04 04:35:07;;;;;;;7.30;6.53;;;;;;;;;;10289573;28;20043;-76
2022/09/04 04:40:19;;;;;;;7.57;6.43;;;;;;;;;;10290265;28;20089;-75
2022/09/04 04:50:50;;;;;;;8.45;6.93;;;;;;;;;;10282985;28;20050;-76
2022/09/04 04:55:50;;;;;;;;;;;;;;;;;;10273149;28;20042;-74
2022/09/04 05:00:57;;;;;;;8.77;7.20;;;;;;;;;;10287832;28;19918;-76
2022/09/04 05:06:10;;;;;;;8.20;7.25;;;;;;;;;;10290206;28;20023;-75
2022/09/04 05:11:29;;;;;;;8.50;7.57;;;;;;;;;;10289947;28;20470;-73
2022/09/04 05:16:48;;;;;;;9.57;8.13;;;;;;;;;;10285023;28;20070;-76
2022/09/04 05:21:52;;;;;;;9.38;7.35;;;;;;;;;;10289349;28;20038;-75
2022/09/04 05:26:59;;;;;;;10.40;8.98;;;;;;;;;;10288753;28;20035;-76
2022/09/04 05:32:05;;;;;;;10.05;9.05;;;;;;;;;;10286566;28;20046;-76
2022/09/04 05:37:11;;;;;;;12.27;9.85;;;;;;;;;;10288450;28;20031;-76
2022/09/04 05:42:14;;;;;;;10.90;9.50;;;;;;;;;;10289343;28;20039;-77
2022/09/04 05:47:21;;;;;;;10.20;8.88;;;;;;;;;;10284788;28;20402;-72
2022/09/04 05:52:41;;;;;;;8.10;7.30;;;;;;;;;;10283136;28;20523;-72
2022/09/04 05:57:54;;;;;;;9.40;8.30;;;;;;;;;;10257989;28;20391;-77
2022/09/04 06:03:04;;;;;;;8.65;7.78;;;;;;;;;;10286011;28;20130;-76
2022/09/04 06:08:23;;;;;;;10.40;8.40;;;;;;;;;;10288421;28;20129;-76
2022/09/04 06:13:29;;;;;;;8.52;7.55;;;;;;;;;;10285785;28;20053;-76
2022/09/04 06:18:50;;;;;;;10.85;8.60;;;;;;;;;;10295004;28;20039;-77
2022/09/04 06:24:06;;;;;;;11.10;9.10;;;;;;;;;;10283326;28;20461;-77
2022/09/04 06:29:27;;;;;;;9.35;8.43;;;;;;;;;;10287531;28;20058;-77
2022/09/04 06:34:30;;;;;;;9.88;8.10;;;;;;;;;;10290697;28;20229;-78
2022/09/04 06:39:41;;;;;;;8.93;8.00;;;;;;;;;;10295336;28;20065;-77
2022/09/04 06:44:53;;;;;;;9.60;8.63;;;;;;;;;;10287633;28;20042;-76
2022/09/04 06:49:57;;;;;;;10.02;9.02;;;;;;;;;;10292577;28;20122;-76
2022/09/04 06:54:59;;;;;;;10.73;9.52;;;;;;;;;;10284721;28;20035;-76
2022/09/04 06:59:59;;;;;;;10.25;9.18;;;;;;;;;;10286105;28;20122;-78
2022/09/04 07:05:18;;;;;;;10.70;9.60;;;;;;;;;;10292609;28;20130;-76
2022/09/04 07:10:39;;;;;;;11.40;9.75;;;;;;;;;;10297759;28;20460;-78
2022/09/04 07:15:39;;;;;;;11.70;10.00;;;;;;;;;;10295298;28;20054;-77
2022/09/04 07:21:01;;;;;;;11.02;9.02;;;;;;;;;;10295217;28;20406;-79
2022/09/04 07:26:18;;;;;;;10.40;9.15;;;;;;;;;;10292156;28;20154;-77
2022/09/04 07:31:25;;;;;;;10.90;9.77;;;;;;;;;;10292349;28;20046;-77
2022/09/04 07:36:25;;;;;;;11.55;9.90;;;;;;;;;;10291370;28;20142;-76
2022/09/04 07:41:31;;;;;;;11.63;9.90;;;;;;;;;;10291972;28;20049;-77
2022/09/04 07:46:43;;;;;;;11.50;10.13;;;;;;;;;;10293543;28;20073;-77
2022/09/04 07:51:52;;;;;;;12.73;10.68;;;;;;;;;;10294848;28;20047;-79
2022/09/04 07:56:53;;;;;;;13.25;10.88;;;;;;;;;;10302060;28;20039;-79
2022/09/04 08:01:54;;;;;;;13.32;11.65;;;;;;;;;;10305766;28;20201;-78
2022/09/04 08:07:04;;;;;;;11.57;9.50;;;;;;;;;;10291695;28;20110;-78
2022/09/04 08:12:24;;;;;;;13.50;10.05;;;;;;;;;;10306866;28;20404;-77
2022/09/04 08:17:40;;;;;;;14.00;11.18;;;;;;;;;;10293962;28;20474;-78
2022/09/04 08:22:40;;;;;;;11.52;10.32;;;;;;;;;;10293554;28;20787;-78
2022/09/04 08:27:40;;;;;;;12.52;10.65;;;;;;;;;;10296856;28;20074;-79
2022/09/04 08:33:00;;;;;;;12.73;10.60;;;;;;;;;;10296585;28;20659;-78
2022/09/04 08:38:19;;;;;;;13.13;11.13;;;;;;;;;;10293916;28;20764;-77
2022/09/04 08:43:25;;;;;;;13.23;10.80;;;;;;;;;;10296612;28;20042;-79
2022/09/04 08:48:31;;;;;;;11.77;10.45;;;;;;;;;;10293466;28;20162;-76
2022/09/04 08:53:43;;;;;;;15.63;10.18;;;;;;;;;;10286919;28;20046;-76
2022/09/04 08:58:53;;;;;;;13.40;11.23;;;;;;;;;;10288715;28;20039;-75
2022/09/04 09:04:10;;;;;;;11.38;9.15;;;;;;;;;;10288115;28;20031;-77
2022/09/04 09:09:14;;;;;;;11.73;9.68;;;;;;;;;;10290026;28;20133;-75
2022/09/04 09:14:23;;;;;;;12.75;9.50;;;;;;;;;;10302094;28;20450;-76
2022/09/04 09:19:43;;;;;;;9.88;8.05;;;;;;;;;;10302991;28;20041;-75
2022/09/04 09:24:50;;;;;;;7.78;6.47;;;;;;;;;;10286720;28;20551;-76
2022/09/04 09:30:06;;;;;;;7.97;6.95;;;;;;;;;;10289967;28;20043;-76
2022/09/04 09:35:07;;;;;;;7.47;6.65;;;;;;;;;;10279986;28;20487;-76
2022/09/04 09:40:26;;;;;;;7.35;6.63;;;;;;;;;;10297956;28;20133;-76
2022/09/04 09:45:30;;;;;;;6.00;5.05;;;;;;;;;;10286505;28;20113;-75
2022/09/04 09:50:44;;;;;;;6.70;5.07;;;;;;;;;;10286385;28;20117;-76
2022/09/04 09:55:51;;;;;;;5.80;5.20;;;;;;;;;;10268167;28;20050;-75
2022/09/04 10:01:00;;;;;;;3.78;3.45;;;;;;;;;;10287104;28;20035;-75
2022/09/04 10:06:15;;;;;;;3.70;3.38;;;;;;;;;;10280366;28;20386;-75
2022/09/04 10:11:22;;;;;;;3.25;3.00;;;;;;;;;;10283334;28;20046;-78
2022/09/04 10:16:41;;;;;;;5.50;4.07;;;;;;;;;;10283517;28;20035;-75
2022/09/04 10:22:07;;;;;;;6.85;5.82;;;;;;;;;;10288568;28;20033;-75
2022/09/04 10:27:26;;;;;;;3.50;3.20;;;;;;;;;;10259185;28;20061;-76
2022/09/04 10:32:31;;;;;;;3.42;3.13;;;;;;;;;;10280607;28;20047;-77
2022/09/04 10:37:35;;;;;;;3.22;2.78;;;;;;;;;;10283033;28;20065;-77
2022/09/04 10:42:54;;;;;;;3.50;3.13;;;;;;;;;;10282269;28;20034;-76
2022/09/04 10:48:01;;;;;;;3.65;2.92;;;;;;;;;;10280860;28;20042;-77
2022/09/04 10:53:02;;;;;;;3.47;2.60;;;;;;;;;;10281028;28;20082;-74
2022/09/04 10:58:02;;;;;;;5.20;3.23;;;;;;;;;;10278385;28;20034;-76
2022/09/04 11:03:10;;;;;;;2.77;2.43;;;;;;;;;;10279203;28;20043;-76
2022/09/04 11:08:31;;;;;;;3.05;2.75;;;;;;;;;;10285631;28;20057;-75
2022/09/04 11:13:31;;;;;;;2.47;2.22;;;;;;;;;;10290273;28;20054;-76
2022/09/04 11:18:44;;;;;;;2.53;1.93;;;;;;;;;;10296657;28;20031;-75
2022/09/04 11:24:03;;;;;;;7.15;5.22;;;;;;;;;;10273979;28;20065;-76
2022/09/04 11:29:11;;;;;;;1.75;1.50;;;;;;;;;;10268817;28;20046;-76
2022/09/04 11:34:14;;;;;;;2.85;1.90;;;;;;;;;;10286530;28;20069;-74
2022/09/04 11:39:33;;;;;;;2.58;1.98;;;;;;;;;;10288330;28;20174;-74
2022/09/04 11:45:15;;;;;;;3.13;1.80;;;;;;;;;;10284429;28;20039;-75
2022/09/04 11:50:39;;;;;;;2.20;1.75;;;;;;;;;;10114149;29;20040;-78
2022/09/04 11:55:58;;;;;;;1.80;1.70;;;;;;;;;;10261609;28;20051;-75
2022/09/04 12:01:15;;;;;;;2.42;1.65;;;;;;;;;;10288928;28;20046;-76
2022/09/04 12:06:26;;;;;;;1.80;1.70;;;;;;;;;;10286804;28;20042;-75
2022/09/04 12:11:45;;;;;;;2.17;1.98;;;;;;;;;;10283694;28;20418;-79
2022/09/04 12:16:48;;;;;;;1.73;1.60;;;;;;;;;;10283275;28;20035;-76
2022/09/04 12:22:13;;;;;;;1.90;1.80;;;;;;;;;;10286641;28;20491;-75
2022/09/04 12:27:26;;;;;;;1.67;1.58;;;;;;;;;;10281436;28;20159;-77
2022/09/04 12:32:38;;;;;;;1.70;1.60;;;;;;;;;;10290581;28;20138;-75
2022/09/04 12:37:42;;;;;;;1.50;1.40;;;;;;;;;;10290155;28;20486;-76
2022/09/04 12:42:42;;;;;;;1.77;1.30;;;;;;;;;;10289306;28;20073;-74
2022/09/04 12:48:10;;;;;;;1.85;1.63;;;;;;;;;;10274524;28;20312;-78
2022/09/04 12:53:30;;;;;;;1.40;1.30;;;;;;;;;;10274228;28;20055;-75
2022/09/04 12:58:32;;;;;;;2.65;1.92;;;;;;;;;;10280790;28;20043;-76
2022/09/04 13:03:32;;;;;;;;;;;;;;;;;;10287806;28;20039;-77
2022/09/04 13:08:33;;;;;;;2.25;2.05;;;;;;;;;;10283962;28;19921;-77
2022/09/04 13:13:33;;;;;;;1.65;1.40;;;;;;;;;;10272299;28;20661;-76
2022/09/04 13:18:48;;;;;;;2.37;1.50;;;;;;;;;;10295748;28;20447;-77
2022/09/04 13:24:07;;;;;;;1.45;1.35;;;;;;;;;;10299171;28;20034;-77
2022/09/04 13:29:14;;;;;;;1.85;1.40;;;;;;;;;;10308935;28;20050;-77
2022/09/04 13:34:22;;;;;;;1.60;1.50;;;;;;;;;;10320508;28;20114;-77
2022/09/04 13:39:32;;;;;;;1.70;1.58;;;;;;;;;;10297724;28;20145;-78
2022/09/04 13:44:39;;;;;;;1.73;1.63;;;;;;;;;;10306996;28;20035;-78
2022/09/04 13:49:58;;;;;;;11.52;9.32;;;;;;;;;;10279514;28;20051;-76
2022/09/04 13:55:06;;;;;;;2.40;1.67;;;;;;;;;;10292617;28;20047;-77
2022/09/04 14:00:07;;;;;;;1.90;1.70;;;;;;;;;;10303897;28;20039;-78
2022/09/04 14:05:14;;;;;;;1.83;1.67;;;;;;;;;;10291103;28;20537;-76
2022/09/04 14:10:18;;;;;;;1.95;1.83;;;;;;;;;;10288676;28;20102;-77
2022/09/04 14:15:39;;;;;;;1.80;1.33;;;;;;;;;;10295771;28;20058;-78
2022/09/04 14:20:42;;;;;;;1.60;1.50;;;;;;;;;;10292891;28;20047;-78
2022/09/04 14:25:49;;;;;;;2.90;1.48;;;;;;;;;;10288298;28;20047;-76
2022/09/04 14:31:09;;;;;;;1.52;1.23;;;;;;;;;;10285967;28;20070;-77
2022/09/04 14:36:10;;;;;;;2.35;1.80;;;;;;;;;;10292034;28;20050;-73
2022/09/04 14:41:17;;;;;;;2.00;1.53;;;;;;;;;;10291517;28;20039;-73
2022/09/04 14:46:27;;;;;;;2.20;2.00;;;;;;;;;;10284281;28;20054;-74
2022/09/04 14:51:29;;;;;;;1.40;1.30;;;;;;;;;;10301957;28;20154;-76
2022/09/04 14:56:32;;;;;;;1.60;1.50;;;;;;;;;;10289259;28;20126;-76
2022/09/04 15:01:34;;;;;;;2.25;1.50;;;;;;;;;;10282794;28;20171;-75
2022/09/04 15:06:44;;;;;;;1.50;1.40;;;;;;;;;;10278702;28;20082;-73
2022/09/04 15:11:45;;;;;;;1.90;1.42;;;;;;;;;;10282611;28;20034;-74
2022/09/04 15:16:49;;;;;;;1.60;1.50;;;;;;;;;;10280177;28;20043;-74
2022/09/04 15:21:54;;;;;;;5.25;4.75;;;;;;;;;;10286039;28;20107;-76
2022/09/04 15:27:00;;;;;;;38.78;30.58;;;;;;;;;;10309234;28;20038;-74
2022/09/04 15:32:08;;;;;;;1.73;1.60;;;;;;;;;;10307254;28;20059;-75
2022/09/04 15:37:12;;;;;;;1.70;1.60;;;;;;;;;;10288948;28;20047;-74
2022/09/04 15:42:29;;;;;;;1.70;1.60;;;;;;;;;;10289580;28;20045;-74
2022/09/04 15:47:32;;;;;;;1.80;1.70;;;;;;;;;;10292645;28;20137;-74
2022/09/04 15:52:45;;;;;;;2.03;1.80;;;;;;;;;;10289954;28;20047;-74
2022/09/04 15:57:48;;;;;;;1.88;1.75;;;;;;;;;;10293037;28;20133;-78
2022/09/04 16:02:58;;;;;;;2.17;1.98;;;;;;;;;;10300817;28;20070;-77
2022/09/04 16:08:05;;;;;;;2.60;1.92;;;;;;;;;;10296599;28;20430;-77
2022/09/04 16:13:26;;;;;;;2.45;2.20;;;;;;;;;;10296436;28;20043;-77
2022/09/04 16:18:44;;;;;;;2.17;1.95;;;;;;;;;;10296498;28;20573;-77
2022/09/04 16:23:45;;;;;;;1.70;1.60;;;;;;;;;;10306175;28;20066;-77
2022/09/04 16:28:52;;;;;;;2.00;1.80;;;;;;;;;;10291788;28;20043;-79
2022/09/04 16:33:57;;;;;;;2.10;1.92;;;;;;;;;;10291401;28;20051;-77
2022/09/04 16:39:04;;;;;;;2.55;2.00;;;;;;;;;;10291591;28;20038;-78
2022/09/04 16:44:17;;;;;;;2.10;1.90;;;;;;;;;;10292724;28;20047;-77
2022/09/04 16:49:28;;;;;;;1.75;1.63;;;;;;;;;;10287919;28;20043;-76
2022/09/04 16:54:36;;;;;;;2.60;1.95;;;;;;;;;;10285486;28;20038;-76
2022/09/04 16:59:58;;;;;;;2.90;2.65;;;;;;;;;;10290713;28;20042;-73
2022/09/04 17:05:06;;;;;;;2.20;2.00;;;;;;;;;;10279613;28;20050;-74
2022/09/04 17:10:29;;;;;;;2.55;2.35;;;;;;;;;;10284529;28;20170;-75
2022/09/04 17:15:32;;;;;;;2.73;2.10;;;;;;;;;;10281657;28;20593;-74
2022/09/04 17:20:38;;;;;;;2.38;2.15;;;;;;;;;;10289735;28;20043;-74
2022/09/04 17:25:46;;;;;;;2.35;2.15;;;;;;;;;;10286032;28;20035;-75
2022/09/04 17:30:50;;;;;;;2.47;2.28;;;;;;;;;;10287271;28;20047;-75
2022/09/04 17:36:11;;;;;;;4.70;4.30;;;;;;;;;;10274505;28;20058;-78
2022/09/04 17:41:19;;;;;;;11.95;9.48;;;;;;;;;;10295311;28;20050;-77
2022/09/04 17:46:35;;;;;;;5.65;5.15;;;;;;;;;;10299309;28;20030;-76
2022/09/04 17:51:36;;;;;;;4.55;3.55;;;;;;;;;;10287538;28;20105;-79
2022/09/04 17:56:51;;;;;;;3.92;3.50;;;;;;;;;;10287969;28;20100;-77
2022/09/04 18:02:00;;;;;;;4.25;3.30;;;;;;;;;;10286238;28;20043;-78
2022/09/04 18:07:00;;;;;;;3.67;3.38;;;;;;;;;;10285662;28;20042;-78
2022/09/04 18:12:02;;;;;;;4.60;3.67;;;;;;;;;;10289524;28;20054;-76
2022/09/04 18:17:04;;;;;;;;;;;;;;;;;;10293978;28;20045;-77
2022/09/04 18:22:26;;;;;;;4.65;4.13;;;;;;;;;;10294229;28;20030;-79
2022/09/04 18:27:52;;;;;;;5.30;4.50;;;;;;;;;;10292617;28;20123;-77
2022/09/04 18:33:12;;;;;;;7.22;5.28;;;;;;;;;;10289149;28;20126;-77
2022/09/04 18:38:19;;;;;;;6.38;4.95;;;;;;;;;;10270871;28;20041;-79
2022/09/04 18:43:25;;;;;;;7.10;5.45;;;;;;;;;;10288708;28;20034;-77
2022/09/04 18:48:25;;;;;;;5.35;4.30;;;;;;;;;;10296960;28;20097;-77
2022/09/04 18:53:31;;;;;;;6.05;4.85;;;;;;;;;;10301406;28;20362;-77
2022/09/04 18:58:37;;;;;;;7.88;5.60;;;;;;;;;;10301790;28;20055;-78
2022/09/04 19:03:44;;;;;;;9.18;4.60;;;;;;;;;;10305312;28;20046;-78
2022/09/04 19:08:48;;;;;;;4.80;4.10;;;;;;;;;;10295557;28;20038;-78
2022/09/04 19:13:55;;;;;;;6.25;5.25;;;;;;;;;;10302332;28;20165;-79
2022/09/04 19:18:59;;;;;;;7.15;6.18;;;;;;;;;;10316374;28;20041;-81
2022/09/04 19:24:10;;;;;;;10.07;8.00;;;;;;;;;;10313710;28;20486;-78
2022/09/04 19:29:15;;;;;;;8.77;7.07;;;;;;;;;;10293135;28;20126;-78
2022/09/04 19:34:27;;;;;;;7.25;6.00;;;;;;;;;;10308039;28;20089;-79
2022/09/04 19:39:30;;;;;;;8.00;6.90;;;;;;;;;;10303868;28;20133;-76
2022/09/04 19:44:31;;;;;;;7.95;6.00;;;;;;;;;;10290644;28;20129;-79
2022/09/04 19:49:48;;;;;;;6.40;5.65;;;;;;;;;;10293297;28;20067;-78
2022/09/04 19:54:53;;;;;;;6.80;6.05;;;;;;;;;;10291846;28;20038;-81
2022/09/04 20:00:14;;;;;;;6.13;5.53;;;;;;;;;;10286657;28;20082;-78
2022/09/04 20:05:28;;;;;;;6.00;5.18;;;;;;;;;;10283882;28;20043;-79
2022/09/04 20:10:40;;;;;;;6.18;5.03;;;;;;;;;;10304819;28;20463;-79
2022/09/04 20:15:59;;;;;;;5.57;5.05;;;;;;;;;;10294892;28;20162;-77
2022/09/04 20:21:00;;;;;;;8.75;5.75;;;;;;;;;;10317776;28;20054;-77
2022/09/04 20:26:07;;;;;;;6.70;4.93;;;;;;;;;;10310106;28;20043;-78
2022/09/04 20:31:33;;;;;;;5.90;4.55;;;;;;;;;;10308294;28;20063;-78
2022/09/04 20:36:36;;;;;;;6.13;4.60;;;;;;;;;;10290532;28;20078;-77
2022/09/04 20:41:45;;;;;;;5.18;4.68;;;;;;;;;;10295295;28;20826;-81
2022/09/04 20:46:58;;;;;;;5.90;3.85;;;;;;;;;;10295646;28;20097;-79
2022/09/04 20:52:03;;;;;;;4.00;3.60;;;;;;;;;;10300154;28;20070;-79
2022/09/04 20:57:09;;;;;;;6.15;4.97;;;;;;;;;;10292273;28;20070;-78
2022/09/04 21:02:19;;;;;;;5.80;4.55;;;;;;;;;;10299611;28;20031;-78
2022/09/04 21:07:34;;;;;;;7.45;6.18;;;;;;;;;;10289622;28;20043;-78
2022/09/04 21:12:38;;;;;;;6.28;5.10;;;;;;;;;;10290658;28;20050;-79
2022/09/04 21:17:38;;;;;;;4.43;4.03;;;;;;;;;;10301372;28;20035;-77
2022/09/04 21:22:42;;;;;;;5.10;4.60;;;;;;;;;;10286387;28;20450;-78
2022/09/04 21:28:01;;;;;;;4.65;4.25;;;;;;;;;;10293305;28;20278;-77
2022/09/04 21:33:07;;;;;;;5.25;4.78;;;;;;;;;;10288385;28;20130;-77
2022/09/04 21:38:17;;;;;;;5.57;4.50;;;;;;;;;;10288002;28;20043;-77
2022/09/04 21:43:36;;;;;;;5.75;5.15;;;;;;;;;;10288054;28;20126;-77
2022/09/04 21:48:45;;;;;;;5.93;5.22;;;;;;;;;;10285849;28;20031;-77
2022/09/04 21:53:58;;;;;;;5.57;5.00;;;;;;;;;;10284748;28;20471;-78
2022/09/04 21:59:17;;;;;;;5.35;4.88;;;;;;;;;;10287676;28;20062;-79
2022/09/04 22:04:42;;;;;;;6.47;5.72;;;;;;;;;;10277838;28;20050;-78
2022/09/04 22:10:03;;;;;;;6.32;5.47;;;;;;;;;;10269135;28;20055;-77
2022/09/04 22:15:05;;;;;;;5.20;4.70;;;;;;;;;;10284483;28;20517;-77
2022/09/04 22:20:18;;;;;;;5.77;4.60;;;;;;;;;;10268929;28;20046;-77
2022/09/04 22:25:22;;;;;;;5.95;5.10;;;;;;;;;;10285865;28;20073;-77
2022/09/04 22:30:22;;;;;;;5.07;4.53;;;;;;;;;;10286879;28;20034;-78
2022/09/04 22:35:42;;;;;;;5.43;4.93;;;;;;;;;;10313109;28;20566;-79
2022/09/04 22:41:05;;;;;;;6.43;5.60;;;;;;;;;;10294164;28;20454;-77
2022/09/04 22:46:07;;;;;;;;;;;;;;;;;;10249881;28;20756;-78
2022/09/04 22:51:07;;;;;;;7.93;5.53;;;;;;;;;;10288621;28;20058;-79
2022/09/04 22:56:12;;;;;;;5.70;4.90;;;;;;;;;;10283995;28;20545;-77
2022/09/04 23:01:30;;;;;;;6.25;5.55;;;;;;;;;;10285196;28;20045;-78
2022/09/04 23:06:36;;;;;;;5.45;4.95;;;;;;;;;;10284330;28;20490;-81
2022/09/04 23:11:37;;;;;;;8.10;5.70;;;;;;;;;;10294159;28;20545;-78
2022/09/04 23:16:52;;;;;;;5.10;4.57;;;;;;;;;;10286569;28;20042;-78
2022/09/04 23:22:18;;;;;;;5.55;4.68;;;;;;;;;;10279556;28;20297;-79
2022/09/04 23:27:27;;;;;;;5.07;4.45;;;;;;;;;;10281789;28;20071;-78
2022/09/04 23:32:34;;;;;;;4.65;4.22;;;;;;;;;;10281656;28;20458;-78
2022/09/04 23:37:53;;;;;;;4.82;4.43;;;;;;;;;;10289142;28;20039;-78
2022/09/04 23:43:08;;;;;;;5.78;5.18;;;;;;;;;;10293617;28;20055;-78
2022/09/04 23:48:18;;;;;;;6.25;4.70;;;;;;;;;;10297164;28;20057;-77
2022/09/04 23:53:33;;;;;;;6.97;5.55;;;;;;;;;;10300104;28;20042;-78
